sensor_id;sensor_type;location;lat;lon;timestamp;temperature;humidity
52209;DHT22;38507;53.132;6.394;2023-06-22T00:02:25;16.90;99.90
52209;DHT22;38507;53.132;6.394;2023-06-22T00:04:51;16.80;99.90
52209;DHT22;38507;53.132;6.394;2023-06-22T00:07:16;16.80;99.90
52209;DHT22;38507;53.132;6.394;2023-06-22T00:09:42;16.80;99.90
52209;DHT22;38507;53.132;6.394;2023-06-22T00:12:08;16.70;99.90
52209;DHT22;38507;53.132;6.394;2023-06-22T00:14:33;16.70;99.90
52209;DHT22;38507;53.132;6.394;2023-06-22T00:16:59;16.70;99.90
52209;DHT22;38507;53.132;6.394;2023-06-22T00:19:24;16.70;99.90
52209;DHT22;38507;53.132;6.394;2023-06-22T00:21:50;16.60;99.90
52209;DHT22;38507;53.132;6.394;2023-06-22T00:24:21;16.50;99.90
52209;DHT22;38507;53.132;6.394;2023-06-22T00:26:50;16.50;99.90
52209;DHT22;38507;53.132;6.394;2023-06-22T00:29:16;16.50;99.90
52209;DHT22;38507;53.132;6.394;2023-06-22T00:31:42;16.50;99.90
52209;DHT22;38507;53.132;6.394;2023-06-22T00:34:08;16.40;99.90
52209;DHT22;38507;53.132;6.394;2023-06-22T00:36:34;16.40;99.90
52209;DHT22;38507;53.132;6.394;2023-06-22T00:39:00;16.30;99.90
52209;DHT22;38507;53.132;6.394;2023-06-22T00:41:26;16.20;99.90
52209;DHT22;38507;53.132;6.394;2023-06-22T00:43:54;16.20;99.90
52209;DHT22;38507;53.132;6.394;2023-06-22T00:46:21;16.20;99.90
52209;DHT22;38507;53.132;6.394;2023-06-22T00:48:48;16.20;99.90
52209;DHT22;38507;53.132;6.394;2023-06-22T00:51:14;16.10;99.90
52209;DHT22;38507;53.132;6.394;2023-06-22T00:53:40;16.10;99.90
52209;DHT22;38507;53.132;6.394;2023-06-22T00:56:06;16.10;99.90
52209;DHT22;38507;53.132;6.394;2023-06-22T00:58:35;16.10;99.90
52209;DHT22;38507;53.132;6.394;2023-06-22T01:01:01;16.00;99.90
52209;DHT22;38507;53.132;6.394;2023-06-22T01:03:27;15.80;99.90
52209;DHT22;38507;53.132;6.394;2023-06-22T01:06:01;15.90;99.90
52209;DHT22;38507;53.132;6.394;2023-06-22T01:08:49;15.90;99.90
52209;DHT22;38507;53.132;6.394;2023-06-22T01:11:26;15.80;99.90
52209;DHT22;38507;53.132;6.394;2023-06-22T01:16:44;15.80;99.90
52209;DHT22;38507;53.132;6.394;2023-06-22T01:19:35;15.80;99.90
52209;DHT22;38507;53.132;6.394;2023-06-22T01:22:05;15.70;99.90
52209;DHT22;38507;53.132;6.394;2023-06-22T01:24:38;15.70;99.90
52209;DHT22;38507;53.132;6.394;2023-06-22T01:30:11;15.60;99.90
52209;DHT22;38507;53.132;6.394;2023-06-22T01:32:40;15.60;99.90
52209;DHT22;38507;53.132;6.394;2023-06-22T01:35:09;15.60;99.90
52209;DHT22;38507;53.132;6.394;2023-06-22T01:37:36;15.50;99.90
52209;DHT22;38507;53.132;6.394;2023-06-22T01:40:04;15.40;99.90
52209;DHT22;38507;53.132;6.394;2023-06-22T01:42:31;15.40;99.90
52209;DHT22;38507;53.132;6.394;2023-06-22T01:44:58;15.40;99.90
52209;DHT22;38507;53.132;6.394;2023-06-22T01:47:25;15.40;99.90
52209;DHT22;38507;53.132;6.394;2023-06-22T01:49:53;15.30;99.90
52209;DHT22;38507;53.132;6.394;2023-06-22T01:52:19;15.30;99.90
52209;DHT22;38507;53.132;6.394;2023-06-22T01:54:46;15.40;99.90
52209;DHT22;38507;53.132;6.394;2023-06-22T01:57:12;15.30;99.90
52209;DHT22;38507;53.132;6.394;2023-06-22T02:00:03;15.30;99.90
52209;DHT22;38507;53.132;6.394;2023-06-22T02:02:40;15.20;99.90
52209;DHT22;38507;53.132;6.394;2023-06-22T02:05:09;15.20;99.90
52209;DHT22;38507;53.132;6.394;2023-06-22T02:07:46;15.20;99.90
52209;DHT22;38507;53.132;6.394;2023-06-22T02:10:16;15.20;99.90
52209;DHT22;38507;53.132;6.394;2023-06-22T02:12:44;15.10;99.90
52209;DHT22;38507;53.132;6.394;2023-06-22T02:15:11;15.10;99.90
52209;DHT22;38507;53.132;6.394;2023-06-22T02:17:38;15.20;99.90
52209;DHT22;38507;53.132;6.394;2023-06-22T02:20:04;15.20;99.90
52209;DHT22;38507;53.132;6.394;2023-06-22T02:22:33;15.20;99.90
52209;DHT22;38507;53.132;6.394;2023-06-22T02:24:58;15.10;99.90
52209;DHT22;38507;53.132;6.394;2023-06-22T02:27:24;15.10;99.90
52209;DHT22;38507;53.132;6.394;2023-06-22T02:29:50;15.10;99.90
52209;DHT22;38507;53.132;6.394;2023-06-22T02:32:15;15.00;99.90
52209;DHT22;38507;53.132;6.394;2023-06-22T02:34:43;14.90;99.90
52209;DHT22;38507;53.132;6.394;2023-06-22T02:37:16;14.90;99.90
52209;DHT22;38507;53.132;6.394;2023-06-22T02:39:42;14.90;99.90
52209;DHT22;38507;53.132;6.394;2023-06-22T02:42:07;15.00;99.90
52209;DHT22;38507;53.132;6.394;2023-06-22T02:44:33;15.00;99.90
52209;DHT22;38507;53.132;6.394;2023-06-22T02:46:59;14.90;99.90
52209;DHT22;38507;53.132;6.394;2023-06-22T02:49:24;15.00;99.90
52209;DHT22;38507;53.132;6.394;2023-06-22T02:51:50;15.00;99.90
52209;DHT22;38507;53.132;6.394;2023-06-22T02:54:16;15.00;99.90
52209;DHT22;38507;53.132;6.394;2023-06-22T02:56:42;15.00;99.90
52209;DHT22;38507;53.132;6.394;2023-06-22T02:59:11;15.00;99.90
52209;DHT22;38507;53.132;6.394;2023-06-22T03:01:37;14.90;99.90
52209;DHT22;38507;53.132;6.394;2023-06-22T03:04:12;15.20;99.90
52209;DHT22;38507;53.132;6.394;2023-06-22T03:06:39;14.90;99.90
52209;DHT22;38507;53.132;6.394;2023-06-22T03:09:06;14.80;99.90
52209;DHT22;38507;53.132;6.394;2023-06-22T03:11:33;14.70;99.90
52209;DHT22;38507;53.132;6.394;2023-06-22T03:14:00;14.70;99.90
52209;DHT22;38507;53.132;6.394;2023-06-22T03:16:26;14.80;99.90
52209;DHT22;38507;53.132;6.394;2023-06-22T03:18:52;14.70;99.90
52209;DHT22;38507;53.132;6.394;2023-06-22T03:21:22;14.70;99.90
52209;DHT22;38507;53.132;6.394;2023-06-22T03:23:48;14.70;99.90
52209;DHT22;38507;53.132;6.394;2023-06-22T03:26:16;14.70;99.90
52209;DHT22;38507;53.132;6.394;2023-06-22T03:28:43;14.70;99.90
52209;DHT22;38507;53.132;6.394;2023-06-22T03:31:08;14.70;99.90
52209;DHT22;38507;53.132;6.394;2023-06-22T03:33:34;14.60;99.90
52209;DHT22;38507;53.132;6.394;2023-06-22T03:36:00;14.60;99.90
52209;DHT22;38507;53.132;6.394;2023-06-22T03:38:26;14.60;99.90
52209;DHT22;38507;53.132;6.394;2023-06-22T03:40:51;14.60;99.90
52209;DHT22;38507;53.132;6.394;2023-06-22T03:43:17;14.50;99.90
52209;DHT22;38507;53.132;6.394;2023-06-22T03:45:43;14.50;99.90
52209;DHT22;38507;53.132;6.394;2023-06-22T03:48:11;14.50;99.90
52209;DHT22;38507;53.132;6.394;2023-06-22T03:50:36;14.60;99.90
52209;DHT22;38507;53.132;6.394;2023-06-22T03:53:02;14.60;99.90
52209;DHT22;38507;53.132;6.394;2023-06-22T03:55:28;14.60;99.90
52209;DHT22;38507;53.132;6.394;2023-06-22T03:57:54;14.60;99.90
52209;DHT22;38507;53.132;6.394;2023-06-22T04:00:25;14.60;99.90
52209;DHT22;38507;53.132;6.394;2023-06-22T04:02:51;14.60;99.90
52209;DHT22;38507;53.132;6.394;2023-06-22T04:05:16;14.60;99.90
52209;DHT22;38507;53.132;6.394;2023-06-22T04:07:45;14.60;99.90
52209;DHT22;38507;53.132;6.394;2023-06-22T04:10:11;14.70;99.90
52209;DHT22;38507;53.132;6.394;2023-06-22T04:12:36;14.70;99.90
52209;DHT22;38507;53.132;6.394;2023-06-22T04:15:02;14.80;99.90
52209;DHT22;38507;53.132;6.394;2023-06-22T04:17:28;14.80;99.90
52209;DHT22;38507;53.132;6.394;2023-06-22T04:19:53;14.90;99.90
52209;DHT22;38507;53.132;6.394;2023-06-22T04:22:19;14.90;99.90
52209;DHT22;38507;53.132;6.394;2023-06-22T04:24:45;14.90;99.90
52209;DHT22;38507;53.132;6.394;2023-06-22T04:27:10;15.00;99.90
52209;DHT22;38507;53.132;6.394;2023-06-22T04:29:36;14.90;99.90
52209;DHT22;38507;53.132;6.394;2023-06-22T04:32:04;15.00;99.90
52209;DHT22;38507;53.132;6.394;2023-06-22T04:34:31;15.10;99.90
52209;DHT22;38507;53.132;6.394;2023-06-22T04:36:57;15.20;99.90
52209;DHT22;38507;53.132;6.394;2023-06-22T04:39:23;15.20;99.90
52209;DHT22;38507;53.132;6.394;2023-06-22T04:41:49;15.30;99.90
52209;DHT22;38507;53.132;6.394;2023-06-22T04:44:18;15.30;99.90
52209;DHT22;38507;53.132;6.394;2023-06-22T04:46:54;15.40;99.90
52209;DHT22;38507;53.132;6.394;2023-06-22T04:49:26;15.50;99.90
52209;DHT22;38507;53.132;6.394;2023-06-22T04:52:03;15.60;99.90
52209;DHT22;38507;53.132;6.394;2023-06-22T04:54:29;15.60;99.90
52209;DHT22;38507;53.132;6.394;2023-06-22T04:57:02;15.70;99.90
52209;DHT22;38507;53.132;6.394;2023-06-22T04:59:30;15.80;99.90
52209;DHT22;38507;53.132;6.394;2023-06-22T05:01:57;15.90;99.90
52209;DHT22;38507;53.132;6.394;2023-06-22T05:04:23;16.00;99.90
52209;DHT22;38507;53.132;6.394;2023-06-22T05:06:50;16.10;99.90
52209;DHT22;38507;53.132;6.394;2023-06-22T05:09:16;16.20;99.90
52209;DHT22;38507;53.132;6.394;2023-06-22T05:11:43;16.30;99.90
52209;DHT22;38507;53.132;6.394;2023-06-22T05:14:09;16.40;99.90
52209;DHT22;38507;53.132;6.394;2023-06-22T05:16:34;16.50;99.90
52209;DHT22;38507;53.132;6.394;2023-06-22T05:19:00;16.60;99.90
52209;DHT22;38507;53.132;6.394;2023-06-22T05:21:28;16.70;99.90
52209;DHT22;38507;53.132;6.394;2023-06-22T05:23:54;16.80;99.90
52209;DHT22;38507;53.132;6.394;2023-06-22T05:26:21;17.00;99.90
52209;DHT22;38507;53.132;6.394;2023-06-22T05:28:47;17.10;99.90
52209;DHT22;38507;53.132;6.394;2023-06-22T05:31:16;17.20;99.90
52209;DHT22;38507;53.132;6.394;2023-06-22T05:33:43;17.30;99.90
52209;DHT22;38507;53.132;6.394;2023-06-22T05:36:09;17.40;99.90
52209;DHT22;38507;53.132;6.394;2023-06-22T05:38:36;17.60;99.90
52209;DHT22;38507;53.132;6.394;2023-06-22T05:41:02;17.70;99.90
52209;DHT22;38507;53.132;6.394;2023-06-22T05:43:28;17.80;99.90
52209;DHT22;38507;53.132;6.394;2023-06-22T05:45:53;18.00;99.90
52209;DHT22;38507;53.132;6.394;2023-06-22T05:48:19;18.00;99.90
52209;DHT22;38507;53.132;6.394;2023-06-22T05:50:45;18.10;99.90
52209;DHT22;38507;53.132;6.394;2023-06-22T05:53:10;18.30;99.90
52209;DHT22;38507;53.132;6.394;2023-06-22T05:55:36;18.40;99.90
52209;DHT22;38507;53.132;6.394;2023-06-22T05:58:02;18.50;99.90
52209;DHT22;38507;53.132;6.394;2023-06-22T06:00:29;18.60;99.90
52209;DHT22;38507;53.132;6.394;2023-06-22T06:02:54;18.70;99.90
52209;DHT22;38507;53.132;6.394;2023-06-22T06:05:20;18.90;99.90
52209;DHT22;38507;53.132;6.394;2023-06-22T06:07:46;18.90;99.90
52209;DHT22;38507;53.132;6.394;2023-06-22T06:10:12;19.10;99.90
52209;DHT22;38507;53.132;6.394;2023-06-22T06:12:38;19.20;99.90
52209;DHT22;38507;53.132;6.394;2023-06-22T06:15:04;19.30;99.90
52209;DHT22;38507;53.132;6.394;2023-06-22T06:17:30;19.40;99.90
52209;DHT22;38507;53.132;6.394;2023-06-22T06:19:56;19.60;99.90
52209;DHT22;38507;53.132;6.394;2023-06-22T06:22:21;19.70;99.90
52209;DHT22;38507;53.132;6.394;2023-06-22T06:24:49;19.80;99.90
52209;DHT22;38507;53.132;6.394;2023-06-22T06:27:15;19.90;99.90
52209;DHT22;38507;53.132;6.394;2023-06-22T06:29:40;20.00;99.90
52209;DHT22;38507;53.132;6.394;2023-06-22T06:32:06;20.20;99.90
52209;DHT22;38507;53.132;6.394;2023-06-22T06:34:32;20.30;99.90
52209;DHT22;38507;53.132;6.394;2023-06-22T06:36:58;20.50;99.90
52209;DHT22;38507;53.132;6.394;2023-06-22T06:39:23;20.60;99.90
52209;DHT22;38507;53.132;6.394;2023-06-22T06:41:49;20.90;99.90
52209;DHT22;38507;53.132;6.394;2023-06-22T06:44:15;21.10;99.90
52209;DHT22;38507;53.132;6.394;2023-06-22T06:46:40;21.20;99.90
52209;DHT22;38507;53.132;6.394;2023-06-22T06:49:07;21.40;99.90
52209;DHT22;38507;53.132;6.394;2023-06-22T06:51:33;21.50;99.90
52209;DHT22;38507;53.132;6.394;2023-06-22T06:53:58;21.70;99.90
52209;DHT22;38507;53.132;6.394;2023-06-22T06:56:24;21.70;99.90
52209;DHT22;38507;53.132;6.394;2023-06-22T06:58:50;22.00;99.90
52209;DHT22;38507;53.132;6.394;2023-06-22T07:01:16;22.00;99.90
52209;DHT22;38507;53.132;6.394;2023-06-22T07:03:42;22.00;99.90
52209;DHT22;38507;53.132;6.394;2023-06-22T07:06:08;22.20;99.90
52209;DHT22;38507;53.132;6.394;2023-06-22T07:08:34;22.30;99.90
52209;DHT22;38507;53.132;6.394;2023-06-22T07:11:01;22.50;99.90
52209;DHT22;38507;53.132;6.394;2023-06-22T07:13:27;22.70;99.90
52209;DHT22;38507;53.132;6.394;2023-06-22T07:15:53;22.90;99.90
52209;DHT22;38507;53.132;6.394;2023-06-22T07:18:19;23.10;99.90
52209;DHT22;38507;53.132;6.394;2023-06-22T07:20:44;23.20;99.90
52209;DHT22;38507;53.132;6.394;2023-06-22T07:23:10;23.30;99.90
52209;DHT22;38507;53.132;6.394;2023-06-22T07:25:36;23.50;99.90
52209;DHT22;38507;53.132;6.394;2023-06-22T07:28:03;23.60;99.90
52209;DHT22;38507;53.132;6.394;2023-06-22T07:30:30;23.80;99.90
52209;DHT22;38507;53.132;6.394;2023-06-22T07:32:56;23.90;99.90
52209;DHT22;38507;53.132;6.394;2023-06-22T07:35:23;24.20;99.90
52209;DHT22;38507;53.132;6.394;2023-06-22T07:37:49;24.10;99.90
52209;DHT22;38507;53.132;6.394;2023-06-22T07:40:17;24.30;99.90
52209;DHT22;38507;53.132;6.394;2023-06-22T07:42:44;24.50;99.90
52209;DHT22;38507;53.132;6.394;2023-06-22T07:45:09;24.60;99.90
52209;DHT22;38507;53.132;6.394;2023-06-22T07:47:35;24.70;99.90
52209;DHT22;38507;53.132;6.394;2023-06-22T07:50:02;24.70;99.90
52209;DHT22;38507;53.132;6.394;2023-06-22T07:52:29;25.10;99.90
52209;DHT22;38507;53.132;6.394;2023-06-22T07:54:54;25.30;99.90
52209;DHT22;38507;53.132;6.394;2023-06-22T07:57:20;25.30;99.90
52209;DHT22;38507;53.132;6.394;2023-06-22T07:59:46;25.40;99.90
52209;DHT22;38507;53.132;6.394;2023-06-22T08:02:12;25.50;99.90
52209;DHT22;38507;53.132;6.394;2023-06-22T08:04:38;25.60;99.90
52209;DHT22;38507;53.132;6.394;2023-06-22T08:07:04;25.60;99.90
52209;DHT22;38507;53.132;6.394;2023-06-22T08:09:31;25.60;99.90
52209;DHT22;38507;53.132;6.394;2023-06-22T08:11:57;25.60;99.90
52209;DHT22;38507;53.132;6.394;2023-06-22T08:14:26;25.60;99.90
52209;DHT22;38507;53.132;6.394;2023-06-22T08:16:52;25.80;99.90
52209;DHT22;38507;53.132;6.394;2023-06-22T08:19:18;25.90;99.90
52209;DHT22;38507;53.132;6.394;2023-06-22T08:21:44;25.90;99.90
52209;DHT22;38507;53.132;6.394;2023-06-22T08:24:09;26.00;99.90
52209;DHT22;38507;53.132;6.394;2023-06-22T08:26:35;26.10;99.90
52209;DHT22;38507;53.132;6.394;2023-06-22T08:29:03;26.10;99.90
52209;DHT22;38507;53.132;6.394;2023-06-22T08:31:30;26.10;99.90
52209;DHT22;38507;53.132;6.394;2023-06-22T08:33:57;26.10;99.90
52209;DHT22;38507;53.132;6.394;2023-06-22T08:36:22;26.20;99.90
52209;DHT22;38507;53.132;6.394;2023-06-22T08:38:48;26.40;99.90
52209;DHT22;38507;53.132;6.394;2023-06-22T08:41:17;26.50;99.90
52209;DHT22;38507;53.132;6.394;2023-06-22T08:43:43;26.60;99.90
52209;DHT22;38507;53.132;6.394;2023-06-22T08:46:10;26.70;99.90
52209;DHT22;38507;53.132;6.394;2023-06-22T08:48:36;26.80;99.90
52209;DHT22;38507;53.132;6.394;2023-06-22T08:51:02;26.80;99.90
52209;DHT22;38507;53.132;6.394;2023-06-22T08:53:28;26.90;99.90
52209;DHT22;38507;53.132;6.394;2023-06-22T08:55:54;26.90;99.90
52209;DHT22;38507;53.132;6.394;2023-06-22T08:58:20;27.00;99.90
52209;DHT22;38507;53.132;6.394;2023-06-22T09:00:47;27.10;99.90
52209;DHT22;38507;53.132;6.394;2023-06-22T09:03:13;27.20;99.90
52209;DHT22;38507;53.132;6.394;2023-06-22T09:05:38;27.10;99.90
52209;DHT22;38507;53.132;6.394;2023-06-22T09:08:04;27.20;99.90
52209;DHT22;38507;53.132;6.394;2023-06-22T09:10:30;27.20;99.90
52209;DHT22;38507;53.132;6.394;2023-06-22T09:12:57;27.30;99.90
52209;DHT22;38507;53.132;6.394;2023-06-22T09:15:22;27.40;99.90
52209;DHT22;38507;53.132;6.394;2023-06-22T09:17:48;27.40;99.90
52209;DHT22;38507;53.132;6.394;2023-06-22T09:20:14;27.60;99.90
52209;DHT22;38507;53.132;6.394;2023-06-22T09:22:41;27.60;99.90
52209;DHT22;38507;53.132;6.394;2023-06-22T09:25:07;27.90;99.90
52209;DHT22;38507;53.132;6.394;2023-06-22T09:27:33;27.90;99.90
52209;DHT22;38507;53.132;6.394;2023-06-22T09:29:58;27.90;99.90
52209;DHT22;38507;53.132;6.394;2023-06-22T09:32:24;28.00;99.90
52209;DHT22;38507;53.132;6.394;2023-06-22T09:34:51;28.10;99.90
52209;DHT22;38507;53.132;6.394;2023-06-22T09:37:17;28.30;99.90
52209;DHT22;38507;53.132;6.394;2023-06-22T09:39:42;28.10;99.90
52209;DHT22;38507;53.132;6.394;2023-06-22T09:42:08;28.30;99.90
52209;DHT22;38507;53.132;6.394;2023-06-22T09:44:34;28.30;99.90
52209;DHT22;38507;53.132;6.394;2023-06-22T09:47:00;28.30;99.90
52209;DHT22;38507;53.132;6.394;2023-06-22T09:49:25;28.30;99.90
52209;DHT22;38507;53.132;6.394;2023-06-22T09:51:51;28.50;99.90
52209;DHT22;38507;53.132;6.394;2023-06-22T09:54:18;28.40;99.90
52209;DHT22;38507;53.132;6.394;2023-06-22T09:56:43;28.60;99.90
52209;DHT22;38507;53.132;6.394;2023-06-22T09:59:09;28.30;99.90
52209;DHT22;38507;53.132;6.394;2023-06-22T10:01:35;28.60;99.90
52209;DHT22;38507;53.132;6.394;2023-06-22T10:04:02;28.70;99.90
52209;DHT22;38507;53.132;6.394;2023-06-22T10:06:27;28.80;99.60
52209;DHT22;38507;53.132;6.394;2023-06-22T10:08:53;28.80;99.90
52209;DHT22;38507;53.132;6.394;2023-06-22T10:11:19;28.90;99.90
52209;DHT22;38507;53.132;6.394;2023-06-22T10:13:44;29.10;99.90
52209;DHT22;38507;53.132;6.394;2023-06-22T10:16:10;29.10;99.90
52209;DHT22;38507;53.132;6.394;2023-06-22T10:18:36;29.30;99.70
52209;DHT22;38507;53.132;6.394;2023-06-22T10:21:02;29.20;98.50
52209;DHT22;38507;53.132;6.394;2023-06-22T10:23:27;29.50;99.70
52209;DHT22;38507;53.132;6.394;2023-06-22T10:25:53;29.60;99.50
52209;DHT22;38507;53.132;6.394;2023-06-22T10:28:19;29.60;99.30
52209;DHT22;38507;53.132;6.394;2023-06-22T10:30:44;29.60;99.30
52209;DHT22;38507;53.132;6.394;2023-06-22T10:33:11;29.60;98.50
52209;DHT22;38507;53.132;6.394;2023-06-22T10:35:37;29.60;97.90
52209;DHT22;38507;53.132;6.394;2023-06-22T10:38:04;29.30;99.00
52209;DHT22;38507;53.132;6.394;2023-06-22T10:40:30;29.10;98.60
52209;DHT22;38507;53.132;6.394;2023-06-22T10:42:55;29.10;98.80
52209;DHT22;38507;53.132;6.394;2023-06-22T10:45:21;29.20;98.80
52209;DHT22;38507;53.132;6.394;2023-06-22T10:47:47;29.30;98.30
52209;DHT22;38507;53.132;6.394;2023-06-22T10:50:13;29.40;98.00
52209;DHT22;38507;53.132;6.394;2023-06-22T10:52:39;28.90;97.70
52209;DHT22;38507;53.132;6.394;2023-06-22T10:55:05;29.20;98.30
52209;DHT22;38507;53.132;6.394;2023-06-22T10:57:31;29.20;97.80
52209;DHT22;38507;53.132;6.394;2023-06-22T10:59:57;29.50;97.90
52209;DHT22;38507;53.132;6.394;2023-06-22T11:02:23;29.40;98.10
52209;DHT22;38507;53.132;6.394;2023-06-22T11:04:49;29.60;98.00
52209;DHT22;38507;53.132;6.394;2023-06-22T11:07:15;29.60;97.60
52209;DHT22;38507;53.132;6.394;2023-06-22T11:09:43;29.70;97.70
52209;DHT22;38507;53.132;6.394;2023-06-22T11:12:08;29.50;97.60
52209;DHT22;38507;53.132;6.394;2023-06-22T11:14:34;29.30;97.30
52209;DHT22;38507;53.132;6.394;2023-06-22T11:17:00;29.50;97.50
52209;DHT22;38507;53.132;6.394;2023-06-22T11:19:26;29.60;97.10
52209;DHT22;38507;53.132;6.394;2023-06-22T11:21:51;29.70;97.10
52209;DHT22;38507;53.132;6.394;2023-06-22T11:24:17;29.70;96.90
52209;DHT22;38507;53.132;6.394;2023-06-22T11:26:43;29.70;97.20
52209;DHT22;38507;53.132;6.394;2023-06-22T11:29:09;29.70;96.90
52209;DHT22;38507;53.132;6.394;2023-06-22T11:31:35;29.70;97.00
52209;DHT22;38507;53.132;6.394;2023-06-22T11:34:01;29.50;96.70
52209;DHT22;38507;53.132;6.394;2023-06-22T11:36:29;29.30;96.10
52209;DHT22;38507;53.132;6.394;2023-06-22T11:38:58;29.40;96.50
52209;DHT22;38507;53.132;6.394;2023-06-22T11:41:24;29.30;96.50
52209;DHT22;38507;53.132;6.394;2023-06-22T11:43:49;29.20;96.30
52209;DHT22;38507;53.132;6.394;2023-06-22T11:46:15;29.10;96.30
52209;DHT22;38507;53.132;6.394;2023-06-22T11:48:40;29.20;96.30
52209;DHT22;38507;53.132;6.394;2023-06-22T11:51:06;29.10;96.10
52209;DHT22;38507;53.132;6.394;2023-06-22T11:53:33;29.00;96.00
52209;DHT22;38507;53.132;6.394;2023-06-22T11:56:00;29.00;96.00
52209;DHT22;38507;53.132;6.394;2023-06-22T11:58:26;28.80;95.70
52209;DHT22;38507;53.132;6.394;2023-06-22T12:00:53;28.70;95.80
52209;DHT22;38507;53.132;6.394;2023-06-22T12:03:19;28.70;95.60
52209;DHT22;38507;53.132;6.394;2023-06-22T12:05:47;28.80;95.80
52209;DHT22;38507;53.132;6.394;2023-06-22T12:08:12;28.60;96.00
52209;DHT22;38507;53.132;6.394;2023-06-22T12:10:39;28.60;96.10
52209;DHT22;38507;53.132;6.394;2023-06-22T12:13:04;28.50;96.40
52209;DHT22;38507;53.132;6.394;2023-06-22T12:15:30;28.50;96.30
52209;DHT22;38507;53.132;6.394;2023-06-22T12:17:56;28.50;96.30
52209;DHT22;38507;53.132;6.394;2023-06-22T12:20:21;28.50;96.20
52209;DHT22;38507;53.132;6.394;2023-06-22T12:22:47;28.40;96.10
52209;DHT22;38507;53.132;6.394;2023-06-22T12:25:13;28.30;96.30
52209;DHT22;38507;53.132;6.394;2023-06-22T12:27:39;28.10;96.40
52209;DHT22;38507;53.132;6.394;2023-06-22T12:30:05;28.20;96.30
52209;DHT22;38507;53.132;6.394;2023-06-22T12:32:31;27.90;96.60
52209;DHT22;38507;53.132;6.394;2023-06-22T12:34:57;27.90;96.90
52209;DHT22;38507;53.132;6.394;2023-06-22T12:37:23;27.90;97.20
52209;DHT22;38507;53.132;6.394;2023-06-22T12:39:49;27.90;97.30
52209;DHT22;38507;53.132;6.394;2023-06-22T12:42:16;27.80;97.60
52209;DHT22;38507;53.132;6.394;2023-06-22T12:44:42;27.90;97.70
52209;DHT22;38507;53.132;6.394;2023-06-22T12:47:08;27.80;97.50
52209;DHT22;38507;53.132;6.394;2023-06-22T12:49:37;27.60;97.20
52209;DHT22;38507;53.132;6.394;2023-06-22T12:52:03;27.60;97.80
52209;DHT22;38507;53.132;6.394;2023-06-22T12:54:29;27.50;97.70
52209;DHT22;38507;53.132;6.394;2023-06-22T12:56:55;27.40;97.80
52209;DHT22;38507;53.132;6.394;2023-06-22T12:59:21;27.30;98.00
52209;DHT22;38507;53.132;6.394;2023-06-22T13:01:47;27.40;97.90
52209;DHT22;38507;53.132;6.394;2023-06-22T13:04:12;27.40;97.90
52209;DHT22;38507;53.132;6.394;2023-06-22T13:06:43;27.40;98.00
52209;DHT22;38507;53.132;6.394;2023-06-22T13:09:13;27.30;98.00
52209;DHT22;38507;53.132;6.394;2023-06-22T13:11:39;27.30;98.10
52209;DHT22;38507;53.132;6.394;2023-06-22T13:14:04;27.10;98.10
52209;DHT22;38507;53.132;6.394;2023-06-22T13:16:30;27.10;98.30
52209;DHT22;38507;53.132;6.394;2023-06-22T13:18:56;27.10;98.50
52209;DHT22;38507;53.132;6.394;2023-06-22T13:21:21;27.10;98.40
52209;DHT22;38507;53.132;6.394;2023-06-22T13:23:47;27.10;98.40
52209;DHT22;38507;53.132;6.394;2023-06-22T13:26:13;27.10;98.50
52209;DHT22;38507;53.132;6.394;2023-06-22T13:28:38;27.10;98.40
52209;DHT22;38507;53.132;6.394;2023-06-22T13:31:04;27.10;98.40
52209;DHT22;38507;53.132;6.394;2023-06-22T13:33:30;27.00;98.50
52209;DHT22;38507;53.132;6.394;2023-06-22T13:35:55;27.00;98.50
52209;DHT22;38507;53.132;6.394;2023-06-22T13:38:21;26.90;98.50
52209;DHT22;38507;53.132;6.394;2023-06-22T13:40:48;26.80;98.30
52209;DHT22;38507;53.132;6.394;2023-06-22T13:43:14;26.70;98.40
52209;DHT22;38507;53.132;6.394;2023-06-22T13:45:40;26.50;98.50
52209;DHT22;38507;53.132;6.394;2023-06-22T13:48:05;26.50;98.50
52209;DHT22;38507;53.132;6.394;2023-06-22T13:50:31;26.40;98.80
52209;DHT22;38507;53.132;6.394;2023-06-22T13:52:57;26.30;98.60
52209;DHT22;38507;53.132;6.394;2023-06-22T13:55:22;26.20;98.50
52209;DHT22;38507;53.132;6.394;2023-06-22T13:57:49;26.20;98.50
52209;DHT22;38507;53.132;6.394;2023-06-22T14:00:15;26.00;98.50
52209;DHT22;38507;53.132;6.394;2023-06-22T14:02:40;25.90;98.40
52209;DHT22;38507;53.132;6.394;2023-06-22T14:05:07;25.90;98.40
52209;DHT22;38507;53.132;6.394;2023-06-22T14:07:33;25.80;98.40
52209;DHT22;38507;53.132;6.394;2023-06-22T14:10:00;25.80;98.40
52209;DHT22;38507;53.132;6.394;2023-06-22T14:12:26;25.70;98.20
52209;DHT22;38507;53.132;6.394;2023-06-22T14:14:51;25.50;98.20
52209;DHT22;38507;53.132;6.394;2023-06-22T14:17:17;25.50;98.30
52209;DHT22;38507;53.132;6.394;2023-06-22T14:19:49;25.30;98.30
52209;DHT22;38507;53.132;6.394;2023-06-22T14:22:15;25.30;98.20
52209;DHT22;38507;53.132;6.394;2023-06-22T14:24:40;25.10;98.40
52209;DHT22;38507;53.132;6.394;2023-06-22T14:27:06;25.00;98.40
52209;DHT22;38507;53.132;6.394;2023-06-22T14:29:34;24.90;98.30
52209;DHT22;38507;53.132;6.394;2023-06-22T14:32:00;24.80;98.30
52209;DHT22;38507;53.132;6.394;2023-06-22T14:34:25;24.70;98.40
52209;DHT22;38507;53.132;6.394;2023-06-22T14:36:51;24.60;98.30
52209;DHT22;38507;53.132;6.394;2023-06-22T14:39:17;24.60;98.40
52209;DHT22;38507;53.132;6.394;2023-06-22T14:41:42;24.50;98.50
52209;DHT22;38507;53.132;6.394;2023-06-22T14:44:08;24.50;98.50
52209;DHT22;38507;53.132;6.394;2023-06-22T14:46:35;24.40;98.50
52209;DHT22;38507;53.132;6.394;2023-06-22T14:49:00;24.40;98.50
52209;DHT22;38507;53.132;6.394;2023-06-22T14:51:26;24.40;98.50
52209;DHT22;38507;53.132;6.394;2023-06-22T14:53:52;24.30;98.30
52209;DHT22;38507;53.132;6.394;2023-06-22T14:56:18;24.20;98.30
52209;DHT22;38507;53.132;6.394;2023-06-22T14:58:43;24.20;98.40
52209;DHT22;38507;53.132;6.394;2023-06-22T15:01:12;24.20;98.40
52209;DHT22;38507;53.132;6.394;2023-06-22T15:03:38;24.20;98.40
52209;DHT22;38507;53.132;6.394;2023-06-22T15:06:04;24.00;98.50
52209;DHT22;38507;53.132;6.394;2023-06-22T15:08:30;24.10;98.70
52209;DHT22;38507;53.132;6.394;2023-06-22T15:10:58;24.00;98.80
52209;DHT22;38507;53.132;6.394;2023-06-22T15:13:25;24.00;98.80
52209;DHT22;38507;53.132;6.394;2023-06-22T15:15:52;24.00;98.80
52209;DHT22;38507;53.132;6.394;2023-06-22T15:18:18;23.80;98.70
52209;DHT22;38507;53.132;6.394;2023-06-22T15:20:44;23.70;98.70
52209;DHT22;38507;53.132;6.394;2023-06-22T15:23:11;23.70;98.70
52209;DHT22;38507;53.132;6.394;2023-06-22T15:25:37;23.60;98.60
52209;DHT22;38507;53.132;6.394;2023-06-22T15:28:03;23.60;98.70
52209;DHT22;38507;53.132;6.394;2023-06-22T15:30:28;23.50;99.00
52209;DHT22;38507;53.132;6.394;2023-06-22T15:32:54;23.40;98.80